Terminal Aerodrome Forecast
Issued by NWS

Home | Current Version | Previous Version | Text Only | Print | Product List | Glossary On
Versions: 1 2 3 4 5 6 7 8 9 10 11 12 13 14 15 16 17 18
016
FTUS43 KJKL 211120
TAFSME
TAF
KSME 211120Z 2112/2212 00000KT P6SM OVC007
     FM211600 VRB05KT P6SM VCSH BKN015
     FM220200 00000KT 6SM BR BKN025
     FM220600 00000KT 3SM BR SKC=

USA.gov is the U.S. government's official web portal to all federal, state and local government web resources and services.